createdAt,value
2023-10-10T00:02:31.664Z,41.97
2023-10-10T00:05:16.331Z,38.87
2023-10-10T00:07:59.633Z,38.87
2023-10-10T00:11:08.243Z,39.87
2023-10-10T00:13:49.920Z,44.20
2023-10-10T00:16:32.587Z,39.27
2023-10-10T00:19:14.922Z,39.10
2023-10-10T00:21:53.411Z,41.97
2023-10-10T00:24:34.324Z,43.60
2023-10-10T00:27:15.940Z,43.53
2023-10-10T00:29:51.919Z,47.20
2023-10-10T00:32:29.169Z,43.40
2023-10-10T00:35:19.306Z,45.17
2023-10-10T00:37:55.213Z,38.43
2023-10-10T00:40:46.654Z,39.10
2023-10-10T00:43:29.654Z,39.33
2023-10-10T00:46:08.475Z,39.80
2023-10-10T00:48:47.659Z,39.43
2023-10-10T00:51:24.756Z,38.50
2023-10-10T00:54:14.117Z,42.40
2023-10-10T00:56:57.379Z,36.77
2023-10-10T00:59:39.268Z,36.70
2023-10-10T01:02:19.940Z,37.00
2023-10-10T01:05:07.841Z,34.10
2023-10-10T01:07:47.783Z,39.17
2023-10-10T01:10:31.300Z,45.87
2023-10-10T01:13:15.315Z,40.43
2023-10-10T01:15:59.891Z,40.00
2023-10-10T01:18:35.539Z,37.77
2023-10-10T01:21:21.711Z,41.70
2023-10-10T01:24:01.139Z,40.90
2023-10-10T01:26:47.330Z,42.17
2023-10-10T01:29:30.230Z,44.40
2023-10-10T01:32:07.340Z,41.03
2023-10-10T01:34:49.616Z,40.57
2023-10-10T01:37:34.076Z,45.87
2023-10-10T01:40:21.288Z,50.50
2023-10-10T01:42:58.755Z,48.73
2023-10-10T01:45:45.895Z,43.30
2023-10-10T01:48:26.447Z,47.67
2023-10-10T01:51:17.747Z,45.90
2023-10-10T01:53:58.578Z,50.93
2023-10-10T01:56:35.129Z,52.93
2023-10-10T01:59:21.562Z,49.87
2023-10-10T02:02:01.267Z,51.57
2023-10-10T02:04:43.455Z,49.37
2023-10-10T02:07:29.112Z,53.93
2023-10-10T02:10:23.986Z,52.43
2023-10-10T02:13:02.256Z,50.97
2023-10-10T02:15:42.460Z,49.80
2023-10-10T02:18:27.941Z,54.00
2023-10-10T02:24:27.929Z,57.97
2023-10-10T02:27:08.535Z,58.60
2023-10-10T02:29:51.672Z,56.27
2023-10-10T02:32:31.254Z,55.70
2023-10-10T02:35:19.645Z,55.43
2023-10-10T02:37:58.066Z,55.13
2023-10-10T02:40:55.606Z,58.57
2023-10-10T02:43:49.212Z,57.87
2023-10-10T02:46:37.322Z,49.23
2023-10-10T02:49:27.677Z,50.33
2023-10-10T02:52:09.534Z,51.40
2023-10-10T02:54:56.881Z,57.27
2023-10-10T02:57:37.480Z,52.20
2023-10-10T03:00:30.741Z,52.67
2023-10-10T03:03:12.899Z,53.53
2023-10-10T03:05:53.394Z,59.27
2023-10-10T03:08:40.373Z,54.57
2023-10-10T03:11:43.325Z,53.73
2023-10-10T03:15:20.807Z,56.97
2023-10-10T03:18:32.369Z,49.73
2023-10-10T03:21:16.072Z,51.63
2023-10-10T03:24:00.059Z,52.03
2023-10-10T03:26:51.389Z,54.63
2023-10-10T03:29:40.271Z,53.37
2023-10-10T03:32:34.074Z,49.47
2023-10-10T03:35:23.704Z,49.77
2023-10-10T03:38:36.811Z,48.50
2023-10-10T03:41:44.325Z,52.30
2023-10-10T03:44:37.808Z,52.43
2023-10-10T03:47:29.410Z,56.60
2023-10-10T03:50:29.664Z,50.87
2023-10-10T03:53:41.460Z,50.57
2023-10-10T03:56:53.209Z,54.90
2023-10-10T03:59:49.736Z,59.07
2023-10-10T04:02:41.366Z,56.33
2023-10-10T04:06:10.284Z,64.30
2023-10-10T04:09:11.392Z,60.67
2023-10-10T04:12:04.388Z,61.63
2023-10-10T04:14:59.012Z,51.43
2023-10-10T04:17:55.180Z,60.87
2023-10-10T04:21:01.231Z,52.47
2023-10-10T04:24:04.693Z,52.03
2023-10-10T04:26:57.580Z,47.63
2023-10-10T04:29:54.092Z,50.97
2023-10-10T04:32:47.354Z,49.53
2023-10-10T04:35:46.246Z,51.70
2023-10-10T04:38:38.746Z,52.03
2023-10-10T04:41:50.721Z,44.17
2023-10-10T04:44:42.806Z,57.43
2023-10-10T04:47:35.784Z,40.47
2023-10-10T04:50:39.490Z,37.77
2023-10-10T04:53:33.689Z,36.20
2023-10-10T04:56:26.070Z,40.07
2023-10-10T04:59:21.816Z,44.83
2023-10-10T05:02:13.685Z,43.47
2023-10-10T05:05:05.578Z,43.13
2023-10-10T05:07:58.222Z,44.00
2023-10-10T05:10:59.389Z,41.97
2023-10-10T05:13:55.237Z,42.87
2023-10-10T05:17:02.786Z,43.27
2023-10-10T05:19:56.173Z,39.30
2023-10-10T05:22:50.601Z,37.80
2023-10-10T05:25:32.589Z,36.70
2023-10-10T05:28:12.347Z,31.77
2023-10-10T05:31:04.676Z,29.70
2023-10-10T05:33:46.575Z,27.67
2023-10-10T05:36:25.023Z,28.73
2023-10-10T05:39:01.405Z,28.33
2023-10-10T05:41:52.455Z,28.60
2023-10-10T05:44:35.458Z,22.80
2023-10-10T05:47:14.919Z,20.93
2023-10-10T05:50:00.619Z,27.53
2023-10-10T05:52:36.878Z,30.47
2023-10-10T05:58:05.174Z,32.37
2023-10-10T06:01:05.153Z,25.90
2023-10-10T06:03:41.852Z,26.97
2023-10-10T06:06:21.356Z,29.90
2023-10-10T06:09:04.819Z,28.57
2023-10-10T06:11:42.028Z,31.47
2023-10-10T06:14:18.274Z,30.23
2023-10-10T06:16:57.371Z,32.50
2023-10-10T06:19:35.405Z,35.43
2023-10-10T06:22:18.096Z,28.70
2023-10-10T06:25:02.897Z,29.90
2023-10-10T06:27:44.030Z,28.50
2023-10-10T06:30:29.838Z,28.90
2023-10-10T06:33:24.275Z,29.83
2023-10-10T06:36:23.040Z,29.27
2023-10-10T06:39:17.352Z,26.20
2023-10-10T06:41:57.460Z,24.20
2023-10-10T06:44:38.965Z,28.20
2023-10-10T06:47:22.171Z,24.97
2023-10-10T06:50:04.064Z,31.03
2023-10-10T06:52:47.708Z,28.93
2023-10-10T06:55:39.206Z,28.37
2023-10-10T06:59:09.004Z,22.90
2023-10-10T07:01:48.294Z,24.00
2023-10-10T07:04:30.395Z,22.63
2023-10-10T07:07:13.449Z,24.87
2023-10-10T07:09:50.018Z,50.20
2023-10-10T07:12:34.889Z,50.17
2023-10-10T07:15:17.208Z,53.37
2023-10-10T07:18:08.060Z,52.17
2023-10-10T07:21:01.028Z,56.80
2023-10-10T07:23:57.921Z,58.13
2023-10-10T07:26:46.226Z,53.97
2023-10-10T07:29:33.265Z,58.23
2023-10-10T07:32:19.265Z,60.00
2023-10-10T07:35:13.799Z,61.57
2023-10-10T07:41:33.998Z,57.07
2023-10-10T07:44:09.679Z,56.40
2023-10-10T07:47:10.468Z,62.67
2023-10-10T07:49:53.168Z,55.90
2023-10-10T07:52:42.368Z,60.07
2023-10-10T07:55:24.555Z,53.77
2023-10-10T07:58:28.430Z,55.77
2023-10-10T08:01:13.554Z,55.13
2023-10-10T08:03:56.982Z,55.80
2023-10-10T08:06:36.135Z,55.97
2023-10-10T08:12:10.697Z,55.93
2023-10-10T08:14:47.338Z,51.40
2023-10-10T08:17:30.570Z,55.33
2023-10-10T08:20:39.856Z,53.90
2023-10-10T08:23:18.065Z,51.13
2023-10-10T08:25:54.360Z,49.90
2023-10-10T08:28:36.001Z,53.77
2023-10-10T08:31:13.537Z,55.80
2023-10-10T08:33:50.132Z,55.40
2023-10-10T08:36:32.297Z,59.43
2023-10-10T08:39:28.207Z,64.17
2023-10-10T08:42:08.797Z,61.40
2023-10-10T08:44:54.019Z,64.23
2023-10-10T08:47:36.473Z,63.00
2023-10-10T08:50:17.099Z,65.87
2023-10-10T08:53:02.875Z,64.87
2023-10-10T08:55:41.482Z,61.47
2023-10-10T08:58:17.906Z,59.40
2023-10-10T09:00:58.431Z,58.73
2023-10-10T09:03:38.434Z,52.00
2023-10-10T09:06:28.875Z,54.40
2023-10-10T09:09:30.093Z,57.77
2023-10-10T09:12:08.001Z,59.00
2023-10-10T09:14:52.995Z,62.43
2023-10-10T09:17:41.034Z,63.57
2023-10-10T09:20:21.146Z,55.63
2023-10-10T09:23:11.291Z,52.63
2023-10-10T09:26:00.608Z,46.30
2023-10-10T09:28:52.125Z,46.10
2023-10-10T09:31:34.209Z,45.20
2023-10-10T09:34:18.266Z,45.73
2023-10-10T09:37:04.823Z,42.60
2023-10-10T09:39:44.728Z,39.50
2023-10-10T09:42:32.696Z,38.70
2023-10-10T09:45:29.705Z,44.70
2023-10-10T09:48:20.130Z,39.03
2023-10-10T09:51:11.293Z,37.73
2023-10-10T09:53:49.843Z,39.23
2023-10-10T09:56:32.406Z,37.33
2023-10-10T09:59:14.111Z,37.27
2023-10-10T10:02:02.846Z,42.47
2023-10-10T10:04:47.658Z,39.17
2023-10-10T10:07:59.351Z,33.23
2023-10-10T10:10:58.096Z,36.13
2023-10-10T10:14:17.333Z,36.30
2023-10-10T10:17:16.960Z,34.93
2023-10-10T10:19:54.172Z,36.60
2023-10-10T10:22:37.573Z,37.40
2023-10-10T10:25:28.896Z,35.57
2023-10-10T10:28:13.946Z,36.50
2023-10-10T10:31:17.030Z,33.07
2023-10-10T10:34:28.395Z,34.97
2023-10-10T10:37:17.092Z,26.00
2023-10-10T10:40:18.501Z,30.47
2023-10-10T10:43:01.151Z,32.00
2023-10-10T10:45:44.528Z,34.90
2023-10-10T10:48:33.991Z,32.00
2023-10-10T10:51:35.716Z,28.07
2023-10-10T10:54:37.785Z,28.33
2023-10-10T10:57:47.176Z,27.27
2023-10-10T11:00:59.692Z,27.60
2023-10-10T11:03:48.606Z,25.93
2023-10-10T11:06:33.053Z,28.17
2023-10-10T11:09:27.087Z,21.60
2023-10-10T11:12:21.762Z,24.80
2023-10-10T11:15:12.907Z,24.67
2023-10-10T11:18:11.033Z,22.87
2023-10-10T11:21:11.337Z,20.70
2023-10-10T11:24:01.081Z,21.57
2023-10-10T11:26:48.467Z,21.67
2023-10-10T11:29:39.294Z,22.83
2023-10-10T11:32:18.633Z,28.43
2023-10-10T11:35:17.450Z,21.40
2023-10-10T11:38:02.829Z,25.27
2023-10-10T11:40:47.862Z,53.63
2023-10-10T11:43:33.369Z,61.07
2023-10-10T11:46:14.155Z,65.60
2023-10-10T11:48:56.748Z,65.03
2023-10-10T11:51:43.813Z,67.20
2023-10-10T11:54:29.699Z,64.90
2023-10-10T11:57:21.466Z,61.27
2023-10-10T12:00:30.609Z,58.60
2023-10-10T12:03:10.124Z,60.13
2023-10-10T12:05:57.454Z,68.70
2023-10-10T12:09:03.758Z,63.90
2023-10-10T12:11:44.233Z,64.37
2023-10-10T12:14:32.716Z,68.17
2023-10-10T12:17:14.502Z,66.37
2023-10-10T12:20:03.500Z,68.33
2023-10-10T12:22:41.472Z,73.50
2023-10-10T12:25:28.030Z,87.20
2023-10-10T12:28:21.449Z,101.30
2023-10-10T12:31:24.734Z,97.80
2023-10-10T12:34:17.565Z,102.57
2023-10-10T12:37:02.893Z,103.37
2023-10-10T12:39:41.018Z,109.60
2023-10-10T12:42:29.323Z,107.97
2023-10-10T12:45:07.746Z,111.80
2023-10-10T12:48:08.944Z,110.23
2023-10-10T12:50:53.715Z,106.40
2023-10-10T12:53:43.216Z,107.53
2023-10-10T12:56:23.343Z,109.27
2023-10-10T12:59:25.681Z,117.80
2023-10-10T13:02:09.360Z,110.13
2023-10-10T13:04:55.953Z,94.73
2023-10-10T13:07:48.553Z,103.77
2023-10-10T13:10:33.122Z,92.63
2023-10-10T13:13:10.918Z,88.70
2023-10-10T13:16:10.731Z,92.40
2023-10-10T13:19:00.126Z,88.30
2023-10-10T13:24:52.844Z,91.60
2023-10-10T13:27:59.003Z,89.30
2023-10-10T13:30:39.133Z,86.03
2023-10-10T13:33:19.584Z,85.73
2023-10-10T13:36:17.610Z,78.63
2023-10-10T13:39:08.573Z,82.63
2023-10-10T13:41:51.643Z,81.97
2023-10-10T13:44:40.323Z,79.77
2023-10-10T13:47:28.313Z,80.17
2023-10-10T13:50:30.956Z,80.87
2023-10-10T13:53:15.415Z,85.37
2023-10-10T13:56:00.197Z,89.17
2023-10-10T13:58:45.052Z,92.83
2023-10-10T14:01:39.351Z,85.03
2023-10-10T14:04:27.019Z,86.90
2023-10-10T14:07:09.198Z,87.67
2023-10-10T14:10:02.852Z,83.00
2023-10-10T14:12:47.413Z,87.93
2023-10-10T14:15:32.469Z,85.23
2023-10-10T14:18:13.530Z,90.97
2023-10-10T14:20:53.619Z,88.77
2023-10-10T14:23:38.345Z,95.13
2023-10-10T14:26:30.973Z,89.77
2023-10-10T14:29:35.760Z,97.47
2023-10-10T14:32:35.478Z,97.57
2023-10-10T14:35:16.771Z,96.23
2023-10-10T14:38:07.992Z,92.83
2023-10-10T14:40:50.175Z,94.20
2023-10-10T14:43:39.381Z,95.47
2023-10-10T14:46:32.994Z,93.33
2023-10-10T14:49:25.140Z,105.27
2023-10-10T14:52:06.416Z,107.47
2023-10-10T14:54:51.992Z,102.03
2023-10-10T14:57:33.818Z,101.50
2023-10-10T15:00:25.668Z,110.23
2023-10-10T15:03:19.587Z,113.23
2023-10-10T15:06:15.135Z,109.77
2023-10-10T15:08:59.562Z,115.00
2023-10-10T15:11:38.840Z,109.97
2023-10-10T15:14:17.973Z,100.60
2023-10-10T15:17:02.316Z,113.37
2023-10-10T15:19:48.070Z,111.73
2023-10-10T15:22:28.894Z,108.30
2023-10-10T15:25:07.630Z,109.27
2023-10-10T15:27:46.684Z,94.60
2023-10-10T15:30:33.625Z,100.00
2023-10-10T15:33:25.224Z,111.13
2023-10-10T15:36:19.689Z,107.33
2023-10-10T15:39:00.371Z,110.93
2023-10-10T15:41:39.777Z,111.73
2023-10-10T15:44:40.260Z,105.30
2023-10-10T15:47:22.394Z,109.23
2023-10-10T15:50:08.384Z,116.20
2023-10-10T15:52:59.297Z,112.40
2023-10-10T15:55:42.011Z,107.60
2023-10-10T15:58:25.545Z,110.20
2023-10-10T16:01:11.263Z,111.07
2023-10-10T16:04:12.540Z,113.47
2023-10-10T16:06:58.875Z,115.03
2023-10-10T16:09:49.938Z,108.20
2023-10-10T16:12:31.663Z,105.23
2023-10-10T16:15:20.105Z,111.40
2023-10-10T16:18:09.761Z,103.67
2023-10-10T16:20:51.087Z,109.43
2023-10-10T16:23:38.484Z,102.47
2023-10-10T16:26:24.042Z,104.77
2023-10-10T16:29:22.278Z,105.13
2023-10-10T16:32:05.838Z,103.50
2023-10-10T16:34:51.321Z,100.63
2023-10-10T16:37:40.959Z,114.70
2023-10-10T16:40:29.090Z,103.77
2023-10-10T16:43:20.934Z,106.77
2023-10-10T16:46:06.672Z,101.03
2023-10-10T16:51:53.803Z,103.97
2023-10-10T16:54:44.336Z,107.57
2023-10-10T16:57:26.298Z,103.87
2023-10-10T17:00:30.938Z,101.73
2023-10-10T17:03:19.105Z,108.43
2023-10-10T17:09:08.156Z,100.47
2023-10-10T17:11:54.341Z,103.60
2023-10-10T17:14:43.503Z,105.20
2023-10-10T17:17:39.195Z,100.40
2023-10-10T17:20:27.473Z,101.70
2023-10-10T17:23:16.274Z,98.70
2023-10-10T17:25:55.249Z,97.20
2023-10-10T17:28:41.449Z,93.40
2023-10-10T17:31:23.216Z,90.30
2023-10-10T17:34:04.669Z,102.80
2023-10-10T17:39:54.476Z,89.20
2023-10-10T17:42:35.842Z,91.50
2023-10-10T17:45:23.683Z,84.60
2023-10-10T17:48:01.496Z,89.53
2023-10-10T17:50:53.487Z,93.27
2023-10-10T17:53:33.184Z,88.13
2023-10-10T17:56:15.463Z,80.33
2023-10-10T17:58:59.148Z,82.30
2023-10-10T18:01:40.355Z,85.70
2023-10-10T18:04:34.562Z,84.00
2023-10-10T18:07:15.743Z,79.60
2023-10-10T18:09:59.666Z,84.93
2023-10-10T18:12:48.589Z,91.57
2023-10-10T18:15:25.819Z,98.90
2023-10-10T18:18:06.199Z,88.07
2023-10-10T18:20:52.895Z,88.97
2023-10-10T18:23:50.505Z,91.40
2023-10-10T18:26:29.536Z,95.60
2023-10-10T18:29:12.049Z,86.00
2023-10-10T18:32:02.413Z,93.57
2023-10-10T18:34:47.996Z,94.30
2023-10-10T18:37:28.419Z,90.67
2023-10-10T18:40:25.059Z,104.93
2023-10-10T18:43:03.942Z,95.33
2023-10-10T18:45:47.136Z,90.20
2023-10-10T18:48:25.803Z,102.73
2023-10-10T18:51:03.307Z,101.23
2023-10-10T18:53:46.643Z,108.70
2023-10-10T18:56:32.957Z,94.40
2023-10-10T18:59:16.468Z,100.23
2023-10-10T19:01:55.815Z,105.30
2023-10-10T19:04:33.100Z,95.40
2023-10-10T19:07:13.020Z,104.27
2023-10-10T19:09:51.228Z,99.90
2023-10-10T19:12:39.441Z,103.77
2023-10-10T19:15:19.765Z,91.93
2023-10-10T19:18:02.092Z,100.13
2023-10-10T19:20:43.402Z,100.57
2023-10-10T19:23:23.782Z,100.07
2023-10-10T19:26:04.530Z,101.63
2023-10-10T19:28:45.001Z,99.90
2023-10-10T19:31:26.538Z,100.00
2023-10-10T19:34:09.335Z,102.10
2023-10-10T19:36:48.289Z,94.37
2023-10-10T19:39:29.381Z,93.50
2023-10-10T19:42:06.839Z,95.73
2023-10-10T19:44:49.672Z,90.77
2023-10-10T19:47:30.501Z,93.87
2023-10-10T19:50:12.267Z,94.17
2023-10-10T19:52:56.720Z,95.97
2023-10-10T19:55:37.598Z,101.10
2023-10-10T19:58:15.514Z,99.73
2023-10-10T20:00:57.481Z,102.80
2023-10-10T20:03:35.832Z,109.90
2023-10-10T20:06:22.835Z,111.00
2023-10-10T20:09:00.471Z,107.73
2023-10-10T20:11:38.009Z,108.07
2023-10-10T20:14:15.750Z,108.80
2023-10-10T20:16:53.989Z,109.10
2023-10-10T20:19:31.046Z,102.93
2023-10-10T20:22:06.558Z,107.63
2023-10-10T20:24:41.053Z,104.43
2023-10-10T20:27:16.452Z,100.80
2023-10-10T20:29:50.675Z,118.90
2023-10-10T20:32:27.017Z,104.10
2023-10-10T20:35:01.550Z,104.37
2023-10-10T20:37:35.601Z,111.23
2023-10-10T20:40:11.683Z,114.40
2023-10-10T20:42:47.691Z,104.20
2023-10-10T20:45:22.387Z,104.93
2023-10-10T20:47:59.518Z,101.03
2023-10-10T20:50:34.078Z,102.00
2023-10-10T20:53:10.016Z,95.87
2023-10-10T20:55:44.528Z,104.93
2023-10-10T20:58:19.225Z,103.93
2023-10-10T21:00:53.689Z,109.00
2023-10-10T21:03:29.337Z,105.03
2023-10-10T21:06:03.444Z,99.13
2023-10-10T21:08:37.636Z,102.50
2023-10-10T21:11:16.487Z,99.37
2023-10-10T21:13:51.882Z,94.57
2023-10-10T21:16:26.452Z,104.73
2023-10-10T21:19:04.827Z,99.37
2023-10-10T21:21:41.098Z,104.37
2023-10-10T21:24:18.582Z,111.77
2023-10-10T21:26:55.144Z,101.23
2023-10-10T21:29:34.674Z,113.50
2023-10-10T21:32:14.927Z,119.90
2023-10-10T21:34:57.673Z,110.00
2023-10-10T21:37:37.241Z,110.43
2023-10-10T21:40:16.762Z,107.57
2023-10-10T21:42:56.951Z,107.43
2023-10-10T21:45:36.884Z,117.23
2023-10-10T21:48:21.302Z,104.57
2023-10-10T21:51:08.471Z,102.40
2023-10-10T21:53:43.580Z,101.67
2023-10-10T21:56:19.264Z,104.97
2023-10-10T21:58:53.270Z,89.47
2023-10-10T22:01:28.791Z,90.30
2023-10-10T22:04:02.909Z,87.60
2023-10-10T22:06:38.736Z,86.40
2023-10-10T22:09:16.034Z,86.23
2023-10-10T22:11:50.857Z,84.43
2023-10-10T22:14:29.929Z,83.97
2023-10-10T22:17:07.914Z,83.83
2023-10-10T22:19:43.133Z,84.33
2023-10-10T22:22:20.120Z,78.17
2023-10-10T22:24:55.847Z,72.97
2023-10-10T22:27:29.987Z,75.43
2023-10-10T22:30:05.261Z,72.60
2023-10-10T22:32:39.752Z,78.70
2023-10-10T22:35:15.513Z,83.43
2023-10-10T22:37:53.826Z,80.83
2023-10-10T22:40:30.968Z,80.40
2023-10-10T22:43:06.153Z,82.60
2023-10-10T22:45:41.356Z,82.63
2023-10-10T22:48:17.474Z,92.30
2023-10-10T22:51:00.788Z,92.70
2023-10-10T22:53:40.606Z,92.67
2023-10-10T22:56:20.814Z,93.10
2023-10-10T22:58:54.859Z,89.27
2023-10-10T23:01:29.163Z,90.70
2023-10-10T23:04:04.516Z,98.57
2023-10-10T23:06:39.647Z,92.23
2023-10-10T23:10:02.916Z,89.77
2023-10-10T23:12:46.522Z,75.50
2023-10-10T23:15:28.001Z,78.50
2023-10-10T23:18:03.642Z,85.17
2023-10-10T23:20:42.411Z,76.50
2023-10-10T23:23:19.255Z,63.77
2023-10-10T23:25:55.489Z,68.23
2023-10-10T23:28:36.491Z,69.37
2023-10-10T23:31:14.001Z,71.17
2023-10-10T23:33:49.423Z,73.23
2023-10-10T23:36:30.802Z,71.63
2023-10-10T23:39:08.934Z,74.33
2023-10-10T23:41:45.653Z,68.80
2023-10-10T23:44:24.244Z,68.07
2023-10-10T23:47:00.201Z,69.00
2023-10-10T23:49:35.050Z,66.07
2023-10-10T23:52:11.862Z,66.03
2023-10-10T23:54:49.488Z,67.33
2023-10-10T23:57:25.122Z,65.60
